sensor_id;sensor_type;location;lat;lon;timestamp;P1;durP1;ratioP1;P2;durP2;ratioP2
44098;SDS011;29762;50.086;14.364;2022-08-25T00:03:49;9.07;;;8.07;;
44098;SDS011;29762;50.086;14.364;2022-08-25T00:09:10;9.45;;;8.38;;
44098;SDS011;29762;50.086;14.364;2022-08-25T00:14:33;9.55;;;8.65;;
44098;SDS011;29762;50.086;14.364;2022-08-25T00:19:55;8.45;;;7.72;;
44098;SDS011;29762;50.086;14.364;2022-08-25T00:25:14;9.43;;;8.43;;
44098;SDS011;29762;50.086;14.364;2022-08-25T00:30:33;9.02;;;8.13;;
44098;SDS011;29762;50.086;14.364;2022-08-25T00:35:54;9.40;;;8.50;;
44098;SDS011;29762;50.086;14.364;2022-08-25T00:41:17;9.20;;;8.38;;
44098;SDS011;29762;50.086;14.364;2022-08-25T00:46:40;9.38;;;7.80;;
44098;SDS011;29762;50.086;14.364;2022-08-25T00:52:22;9.23;;;8.07;;
44098;SDS011;29762;50.086;14.364;2022-08-25T00:57:48;9.45;;;8.00;;
44098;SDS011;29762;50.086;14.364;2022-08-25T01:08:32;8.95;;;8.05;;
44098;SDS011;29762;50.086;14.364;2022-08-25T01:13:52;9.77;;;8.77;;
44098;SDS011;29762;50.086;14.364;2022-08-25T01:19:14;9.38;;;8.48;;
44098;SDS011;29762;50.086;14.364;2022-08-25T01:30:06;11.43;;;8.60;;
44098;SDS011;29762;50.086;14.364;2022-08-25T01:35:26;9.38;;;8.50;;
44098;SDS011;29762;50.086;14.364;2022-08-25T01:40:45;11.02;;;8.70;;
44098;SDS011;29762;50.086;14.364;2022-08-25T01:46:05;9.32;;;8.23;;
44098;SDS011;29762;50.086;14.364;2022-08-25T01:51:24;9.95;;;8.95;;
44098;SDS011;29762;50.086;14.364;2022-08-25T01:56:46;10.00;;;9.00;;
44098;SDS011;29762;50.086;14.364;2022-08-25T02:02:06;9.35;;;8.45;;
44098;SDS011;29762;50.086;14.364;2022-08-25T02:07:25;9.52;;;8.63;;
44098;SDS011;29762;50.086;14.364;2022-08-25T02:12:44;9.10;;;8.20;;
44098;SDS011;29762;50.086;14.364;2022-08-25T02:18:04;9.95;;;9.05;;
44098;SDS011;29762;50.086;14.364;2022-08-25T02:23:23;10.82;;;8.75;;
44098;SDS011;29762;50.086;14.364;2022-08-25T02:28:42;8.70;;;7.90;;
44098;SDS011;29762;50.086;14.364;2022-08-25T02:34:02;9.80;;;8.73;;
44098;SDS011;29762;50.086;14.364;2022-08-25T02:39:22;8.95;;;8.13;;
44098;SDS011;29762;50.086;14.364;2022-08-25T02:44:42;9.65;;;8.73;;
44098;SDS011;29762;50.086;14.364;2022-08-25T02:50:02;9.68;;;8.75;;
44098;SDS011;29762;50.086;14.364;2022-08-25T02:55:23;8.95;;;8.15;;
44098;SDS011;29762;50.086;14.364;2022-08-25T03:00:42;8.15;;;7.45;;
44098;SDS011;29762;50.086;14.364;2022-08-25T03:06:02;8.35;;;7.65;;
44098;SDS011;29762;50.086;14.364;2022-08-25T03:11:22;8.95;;;7.85;;
44098;SDS011;29762;50.086;14.364;2022-08-25T03:16:42;8.45;;;7.72;;
44098;SDS011;29762;50.086;14.364;2022-08-25T03:22:02;8.48;;;7.68;;
44098;SDS011;29762;50.086;14.364;2022-08-25T03:27:22;8.50;;;7.70;;
44098;SDS011;29762;50.086;14.364;2022-08-25T03:32:42;8.38;;;7.68;;
44098;SDS011;29762;50.086;14.364;2022-08-25T03:38:03;7.97;;;7.28;;
44098;SDS011;29762;50.086;14.364;2022-08-25T03:43:22;7.65;;;7.05;;
44098;SDS011;29762;50.086;14.364;2022-08-25T03:48:42;7.93;;;7.20;;
44098;SDS011;29762;50.086;14.364;2022-08-25T03:54:01;7.82;;;6.93;;
44098;SDS011;29762;50.086;14.364;2022-08-25T03:59:21;7.80;;;7.10;;
44098;SDS011;29762;50.086;14.364;2022-08-25T04:04:41;7.55;;;6.85;;
44098;SDS011;29762;50.086;14.364;2022-08-25T04:10:00;7.20;;;6.60;;
44098;SDS011;29762;50.086;14.364;2022-08-25T04:15:19;7.32;;;6.63;;
44098;SDS011;29762;50.086;14.364;2022-08-25T04:20:39;7.28;;;6.68;;
44098;SDS011;29762;50.086;14.364;2022-08-25T04:26:00;7.10;;;6.40;;
44098;SDS011;29762;50.086;14.364;2022-08-25T04:31:20;6.72;;;6.13;;
44098;SDS011;29762;50.086;14.364;2022-08-25T04:36:42;6.35;;;5.72;;
44098;SDS011;29762;50.086;14.364;2022-08-25T04:42:02;5.53;;;5.13;;
44098;SDS011;29762;50.086;14.364;2022-08-25T04:47:22;6.25;;;5.75;;
44098;SDS011;29762;50.086;14.364;2022-08-25T04:52:42;6.22;;;5.72;;
44098;SDS011;29762;50.086;14.364;2022-08-25T04:58:01;5.68;;;5.18;;
44098;SDS011;29762;50.086;14.364;2022-08-25T05:03:20;5.90;;;5.40;;
44098;SDS011;29762;50.086;14.364;2022-08-25T05:08:39;5.72;;;5.22;;
44098;SDS011;29762;50.086;14.364;2022-08-25T05:14:00;5.90;;;5.40;;
44098;SDS011;29762;50.086;14.364;2022-08-25T05:19:19;5.70;;;5.20;;
44098;SDS011;29762;50.086;14.364;2022-08-25T05:24:38;6.68;;;6.13;;
44098;SDS011;29762;50.086;14.364;2022-08-25T05:29:58;6.18;;;5.57;;
44098;SDS011;29762;50.086;14.364;2022-08-25T05:35:17;6.18;;;5.57;;
44098;SDS011;29762;50.086;14.364;2022-08-25T05:40:38;6.03;;;5.53;;
44098;SDS011;29762;50.086;14.364;2022-08-25T05:45:57;10.32;;;9.23;;
44098;SDS011;29762;50.086;14.364;2022-08-25T05:51:17;12.80;;;11.13;;
44098;SDS011;29762;50.086;14.364;2022-08-25T05:56:37;16.33;;;13.82;;
44098;SDS011;29762;50.086;14.364;2022-08-25T06:01:58;17.10;;;14.57;;
44098;SDS011;29762;50.086;14.364;2022-08-25T06:07:36;16.83;;;14.27;;
44098;SDS011;29762;50.086;14.364;2022-08-25T06:12:56;17.48;;;15.30;;
44098;SDS011;29762;50.086;14.364;2022-08-25T06:18:15;15.75;;;14.02;;
44098;SDS011;29762;50.086;14.364;2022-08-25T06:23:35;16.00;;;13.68;;
44098;SDS011;29762;50.086;14.364;2022-08-25T06:28:55;17.58;;;14.02;;
44098;SDS011;29762;50.086;14.364;2022-08-25T06:34:15;14.90;;;13.40;;
44098;SDS011;29762;50.086;14.364;2022-08-25T06:39:36;18.05;;;14.02;;
44098;SDS011;29762;50.086;14.364;2022-08-25T06:44:56;14.60;;;12.95;;
44098;SDS011;29762;50.086;14.364;2022-08-25T06:50:15;14.32;;;12.73;;
44098;SDS011;29762;50.086;14.364;2022-08-25T06:55:35;15.27;;;12.85;;
44098;SDS011;29762;50.086;14.364;2022-08-25T07:00:55;15.73;;;13.52;;
44098;SDS011;29762;50.086;14.364;2022-08-25T07:06:15;14.88;;;13.02;;
44098;SDS011;29762;50.086;14.364;2022-08-25T07:11:37;15.07;;;12.60;;
44098;SDS011;29762;50.086;14.364;2022-08-25T07:16:57;14.40;;;12.15;;
44098;SDS011;29762;50.086;14.364;2022-08-25T07:22:16;14.68;;;12.75;;
44098;SDS011;29762;50.086;14.364;2022-08-25T07:27:35;15.73;;;13.05;;
44098;SDS011;29762;50.086;14.364;2022-08-25T07:32:55;14.00;;;12.35;;
44098;SDS011;29762;50.086;14.364;2022-08-25T07:38:14;11.90;;;10.63;;
44098;SDS011;29762;50.086;14.364;2022-08-25T07:43:33;10.38;;;9.25;;
44098;SDS011;29762;50.086;14.364;2022-08-25T07:48:53;9.73;;;8.82;;
44098;SDS011;29762;50.086;14.364;2022-08-25T07:54:12;9.90;;;9.00;;
44098;SDS011;29762;50.086;14.364;2022-08-25T07:59:32;10.45;;;8.98;;
44098;SDS011;29762;50.086;14.364;2022-08-25T08:04:51;10.20;;;9.20;;
44098;SDS011;29762;50.086;14.364;2022-08-25T08:10:12;9.85;;;8.50;;
44098;SDS011;29762;50.086;14.364;2022-08-25T08:15:32;9.70;;;8.80;;
44098;SDS011;29762;50.086;14.364;2022-08-25T08:20:52;10.85;;;9.00;;
44098;SDS011;29762;50.086;14.364;2022-08-25T08:26:12;10.00;;;9.00;;
44098;SDS011;29762;50.086;14.364;2022-08-25T08:31:32;11.32;;;10.15;;
44098;SDS011;29762;50.086;14.364;2022-08-25T08:36:52;11.10;;;10.00;;
44098;SDS011;29762;50.086;14.364;2022-08-25T08:47:57;12.07;;;10.10;;
44098;SDS011;29762;50.086;14.364;2022-08-25T08:53:39;10.75;;;9.63;;
44098;SDS011;29762;50.086;14.364;2022-08-25T08:59:03;14.88;;;9.60;;
44098;SDS011;29762;50.086;14.364;2022-08-25T09:04:26;12.20;;;9.55;;
44098;SDS011;29762;50.086;14.364;2022-08-25T09:09:48;15.73;;;9.32;;
44098;SDS011;29762;50.086;14.364;2022-08-25T09:32:40;16.90;;;9.55;;
44098;SDS011;29762;50.086;14.364;2022-08-25T09:38:05;17.02;;;9.43;;
44098;SDS011;29762;50.086;14.364;2022-08-25T09:43:36;14.23;;;9.30;;
44098;SDS011;29762;50.086;14.364;2022-08-25T09:49:34;18.23;;;9.50;;
44098;SDS011;29762;50.086;14.364;2022-08-25T09:54:57;14.45;;;9.48;;
44098;SDS011;29762;50.086;14.364;2022-08-25T10:00:23;14.55;;;9.07;;
44098;SDS011;29762;50.086;14.364;2022-08-25T10:22:43;19.98;;;9.40;;
44098;SDS011;29762;50.086;14.364;2022-08-25T10:28:11;17.80;;;9.35;;
44098;SDS011;29762;50.086;14.364;2022-08-25T10:33:54;17.17;;;9.38;;
44098;SDS011;29762;50.086;14.364;2022-08-25T10:45:12;16.30;;;8.63;;
44098;SDS011;29762;50.086;14.364;2022-08-25T10:56:49;16.80;;;9.85;;
44098;SDS011;29762;50.086;14.364;2022-08-25T11:08:05;24.17;;;9.50;;
44098;SDS011;29762;50.086;14.364;2022-08-25T11:13:46;16.00;;;9.38;;
44098;SDS011;29762;50.086;14.364;2022-08-25T11:19:29;15.18;;;9.30;;
44098;SDS011;29762;50.086;14.364;2022-08-25T11:30:18;13.95;;;8.63;;
44098;SDS011;29762;50.086;14.364;2022-08-25T11:35:42;11.75;;;8.63;;
44098;SDS011;29762;50.086;14.364;2022-08-25T11:46:51;14.40;;;8.55;;
44098;SDS011;29762;50.086;14.364;2022-08-25T11:57:52;14.50;;;8.07;;
44098;SDS011;29762;50.086;14.364;2022-08-25T12:03:48;11.15;;;7.82;;
44098;SDS011;29762;50.086;14.364;2022-08-25T12:09:16;14.82;;;7.50;;
44098;SDS011;29762;50.086;14.364;2022-08-25T12:14:40;13.25;;;7.78;;
44098;SDS011;29762;50.086;14.364;2022-08-25T12:20:00;11.50;;;7.50;;
44098;SDS011;29762;50.086;14.364;2022-08-25T12:30:45;11.13;;;7.25;;
44098;SDS011;29762;50.086;14.364;2022-08-25T12:36:14;10.02;;;7.50;;
44098;SDS011;29762;50.086;14.364;2022-08-25T12:41:56;10.70;;;7.13;;
44098;SDS011;29762;50.086;14.364;2022-08-25T12:52:45;9.75;;;6.97;;
44098;SDS011;29762;50.086;14.364;2022-08-25T12:58:05;9.48;;;7.18;;
44098;SDS011;29762;50.086;14.364;2022-08-25T13:26:38;10.18;;;7.03;;
44098;SDS011;29762;50.086;14.364;2022-08-25T13:32:00;11.05;;;6.53;;
44098;SDS011;29762;50.086;14.364;2022-08-25T13:37:24;8.13;;;6.40;;
44098;SDS011;29762;50.086;14.364;2022-08-25T13:42:47;8.50;;;6.30;;
44098;SDS011;29762;50.086;14.364;2022-08-25T13:48:09;9.93;;;6.57;;
44098;SDS011;29762;50.086;14.364;2022-08-25T13:53:29;7.15;;;6.35;;
44098;SDS011;29762;50.086;14.364;2022-08-25T13:58:48;8.45;;;6.13;;
44098;SDS011;29762;50.086;14.364;2022-08-25T14:04:29;8.80;;;6.38;;
44098;SDS011;29762;50.086;14.364;2022-08-25T14:09:53;7.50;;;6.50;;
44098;SDS011;29762;50.086;14.364;2022-08-25T14:20:36;8.65;;;6.07;;
44098;SDS011;29762;50.086;14.364;2022-08-25T14:25:56;6.88;;;6.18;;
44098;SDS011;29762;50.086;14.364;2022-08-25T14:31:29;6.90;;;5.88;;
44098;SDS011;29762;50.086;14.364;2022-08-25T14:36:50;8.27;;;6.28;;
44098;SDS011;29762;50.086;14.364;2022-08-25T14:42:10;8.63;;;6.22;;
44098;SDS011;29762;50.086;14.364;2022-08-25T14:47:30;6.85;;;6.10;;
44098;SDS011;29762;50.086;14.364;2022-08-25T14:52:50;6.72;;;5.85;;
44098;SDS011;29762;50.086;14.364;2022-08-25T14:58:10;7.35;;;6.00;;
44098;SDS011;29762;50.086;14.364;2022-08-25T15:03:31;6.18;;;5.60;;
44098;SDS011;29762;50.086;14.364;2022-08-25T15:08:56;6.88;;;6.10;;
44098;SDS011;29762;50.086;14.364;2022-08-25T15:14:31;6.80;;;5.78;;
44098;SDS011;29762;50.086;14.364;2022-08-25T15:19:51;5.68;;;5.18;;
44098;SDS011;29762;50.086;14.364;2022-08-25T15:25:10;6.78;;;5.55;;
44098;SDS011;29762;50.086;14.364;2022-08-25T15:30:29;8.10;;;6.90;;
44098;SDS011;29762;50.086;14.364;2022-08-25T15:35:49;5.97;;;5.38;;
44098;SDS011;29762;50.086;14.364;2022-08-25T15:41:09;6.60;;;5.75;;
44098;SDS011;29762;50.086;14.364;2022-08-25T15:46:29;6.70;;;6.00;;
44098;SDS011;29762;50.086;14.364;2022-08-25T15:51:50;6.38;;;5.43;;
44098;SDS011;29762;50.086;14.364;2022-08-25T15:57:10;6.63;;;5.85;;
44098;SDS011;29762;50.086;14.364;2022-08-25T16:02:29;5.97;;;5.47;;
44098;SDS011;29762;50.086;14.364;2022-08-25T16:07:51;6.25;;;5.50;;
44098;SDS011;29762;50.086;14.364;2022-08-25T16:13:10;6.15;;;5.55;;
44098;SDS011;29762;50.086;14.364;2022-08-25T16:18:29;6.72;;;5.53;;
44098;SDS011;29762;50.086;14.364;2022-08-25T16:23:49;7.32;;;5.82;;
44098;SDS011;29762;50.086;14.364;2022-08-25T16:29:11;7.60;;;5.75;;
44098;SDS011;29762;50.086;14.364;2022-08-25T16:34:33;6.57;;;5.35;;
44098;SDS011;29762;50.086;14.364;2022-08-25T16:39:53;7.05;;;5.68;;
44098;SDS011;29762;50.086;14.364;2022-08-25T16:45:13;5.93;;;5.30;;
44098;SDS011;29762;50.086;14.364;2022-08-25T16:50:33;6.50;;;5.13;;
44098;SDS011;29762;50.086;14.364;2022-08-25T16:56:02;5.57;;;5.05;;
44098;SDS011;29762;50.086;14.364;2022-08-25T17:01:23;5.70;;;5.10;;
44098;SDS011;29762;50.086;14.364;2022-08-25T17:06:43;5.75;;;4.97;;
44098;SDS011;29762;50.086;14.364;2022-08-25T17:12:03;6.18;;;5.20;;
44098;SDS011;29762;50.086;14.364;2022-08-25T17:17:23;5.47;;;4.97;;
44098;SDS011;29762;50.086;14.364;2022-08-25T17:22:42;5.78;;;5.00;;
44098;SDS011;29762;50.086;14.364;2022-08-25T17:28:02;5.72;;;5.13;;
44098;SDS011;29762;50.086;14.364;2022-08-25T17:33:22;6.93;;;5.22;;
44098;SDS011;29762;50.086;14.364;2022-08-25T17:38:42;5.25;;;4.82;;
44098;SDS011;29762;50.086;14.364;2022-08-25T17:44:02;6.50;;;4.80;;
44098;SDS011;29762;50.086;14.364;2022-08-25T17:49:22;5.28;;;4.78;;
44098;SDS011;29762;50.086;14.364;2022-08-25T17:54:42;5.80;;;4.95;;
44098;SDS011;29762;50.086;14.364;2022-08-25T18:00:02;5.45;;;4.93;;
44098;SDS011;29762;50.086;14.364;2022-08-25T18:05:27;5.22;;;4.80;;
44098;SDS011;29762;50.086;14.364;2022-08-25T18:10:47;5.30;;;4.80;;
44098;SDS011;29762;50.086;14.364;2022-08-25T18:16:09;6.45;;;4.57;;
44098;SDS011;29762;50.086;14.364;2022-08-25T18:21:29;5.95;;;5.03;;
44098;SDS011;29762;50.086;14.364;2022-08-25T18:26:49;5.80;;;5.22;;
44098;SDS011;29762;50.086;14.364;2022-08-25T18:32:09;5.30;;;4.80;;
44098;SDS011;29762;50.086;14.364;2022-08-25T18:37:28;4.70;;;4.32;;
44098;SDS011;29762;50.086;14.364;2022-08-25T18:43:08;4.88;;;4.13;;
44098;SDS011;29762;50.086;14.364;2022-08-25T18:48:29;5.93;;;4.85;;
44098;SDS011;29762;50.086;14.364;2022-08-25T18:53:50;4.95;;;4.50;;
44098;SDS011;29762;50.086;14.364;2022-08-25T18:59:09;5.20;;;4.47;;
44098;SDS011;29762;50.086;14.364;2022-08-25T19:04:28;5.13;;;4.25;;
44098;SDS011;29762;50.086;14.364;2022-08-25T19:09:49;5.57;;;4.43;;
44098;SDS011;29762;50.086;14.364;2022-08-25T19:15:09;5.55;;;4.22;;
44098;SDS011;29762;50.086;14.364;2022-08-25T19:20:29;4.60;;;4.20;;
44098;SDS011;29762;50.086;14.364;2022-08-25T19:25:48;5.28;;;4.85;;
44098;SDS011;29762;50.086;14.364;2022-08-25T19:31:08;4.68;;;4.28;;
44098;SDS011;29762;50.086;14.364;2022-08-25T19:36:28;4.65;;;4.25;;
44098;SDS011;29762;50.086;14.364;2022-08-25T19:41:49;7.20;;;4.65;;
44098;SDS011;29762;50.086;14.364;2022-08-25T19:47:08;5.53;;;3.95;;
44098;SDS011;29762;50.086;14.364;2022-08-25T19:52:27;4.75;;;4.35;;
44098;SDS011;29762;50.086;14.364;2022-08-25T19:57:47;5.13;;;4.60;;
44098;SDS011;29762;50.086;14.364;2022-08-25T20:03:06;7.72;;;4.60;;
44098;SDS011;29762;50.086;14.364;2022-08-25T20:08:26;4.80;;;4.30;;
44098;SDS011;29762;50.086;14.364;2022-08-25T20:13:46;4.72;;;4.30;;
44098;SDS011;29762;50.086;14.364;2022-08-25T20:19:07;8.52;;;5.40;;
44098;SDS011;29762;50.086;14.364;2022-08-25T20:24:27;7.22;;;4.88;;
44098;SDS011;29762;50.086;14.364;2022-08-25T20:30:07;12.02;;;5.82;;
44098;SDS011;29762;50.086;14.364;2022-08-25T20:35:29;9.40;;;5.30;;
44098;SDS011;29762;50.086;14.364;2022-08-25T20:40:48;12.23;;;5.40;;
44098;SDS011;29762;50.086;14.364;2022-08-25T20:46:08;9.07;;;5.75;;
44098;SDS011;29762;50.086;14.364;2022-08-25T20:51:27;6.82;;;5.07;;
44098;SDS011;29762;50.086;14.364;2022-08-25T20:56:47;9.82;;;5.13;;
44098;SDS011;29762;50.086;14.364;2022-08-25T21:02:06;9.38;;;5.20;;
44098;SDS011;29762;50.086;14.364;2022-08-25T21:07:26;10.27;;;5.63;;
44098;SDS011;29762;50.086;14.364;2022-08-25T21:12:46;8.15;;;5.22;;
44098;SDS011;29762;50.086;14.364;2022-08-25T21:18:07;9.85;;;5.47;;
44098;SDS011;29762;50.086;14.364;2022-08-25T21:23:28;7.93;;;5.57;;
44098;SDS011;29762;50.086;14.364;2022-08-25T21:28:47;10.95;;;5.70;;
44098;SDS011;29762;50.086;14.364;2022-08-25T21:34:06;8.80;;;5.38;;
44098;SDS011;29762;50.086;14.364;2022-08-25T21:39:26;9.10;;;6.03;;
44098;SDS011;29762;50.086;14.364;2022-08-25T21:44:47;9.50;;;5.40;;
44098;SDS011;29762;50.086;14.364;2022-08-25T21:50:09;11.27;;;6.10;;
44098;SDS011;29762;50.086;14.364;2022-08-25T21:55:30;10.07;;;5.25;;
44098;SDS011;29762;50.086;14.364;2022-08-25T22:00:49;8.88;;;4.93;;
44098;SDS011;29762;50.086;14.364;2022-08-25T22:06:09;9.60;;;5.22;;
44098;SDS011;29762;50.086;14.364;2022-08-25T22:11:30;9.73;;;5.97;;
44098;SDS011;29762;50.086;14.364;2022-08-25T22:16:49;10.43;;;5.78;;
44098;SDS011;29762;50.086;14.364;2022-08-25T22:22:10;7.45;;;5.13;;
44098;SDS011;29762;50.086;14.364;2022-08-25T22:27:29;11.18;;;5.80;;
44098;SDS011;29762;50.086;14.364;2022-08-25T22:32:50;8.57;;;5.15;;
44098;SDS011;29762;50.086;14.364;2022-08-25T22:38:09;9.65;;;5.28;;
44098;SDS011;29762;50.086;14.364;2022-08-25T22:43:29;8.25;;;5.03;;
44098;SDS011;29762;50.086;14.364;2022-08-25T22:48:49;10.48;;;5.15;;
44098;SDS011;29762;50.086;14.364;2022-08-25T22:54:08;8.23;;;5.43;;
44098;SDS011;29762;50.086;14.364;2022-08-25T22:59:32;8.68;;;5.50;;
44098;SDS011;29762;50.086;14.364;2022-08-25T23:04:51;6.15;;;4.60;;
44098;SDS011;29762;50.086;14.364;2022-08-25T23:10:12;5.80;;;4.57;;
44098;SDS011;29762;50.086;14.364;2022-08-25T23:15:32;6.28;;;4.88;;
44098;SDS011;29762;50.086;14.364;2022-08-25T23:20:51;7.75;;;4.78;;
44098;SDS011;29762;50.086;14.364;2022-08-25T23:26:33;7.57;;;4.70;;
44098;SDS011;29762;50.086;14.364;2022-08-25T23:31:52;7.63;;;4.93;;
44098;SDS011;29762;50.086;14.364;2022-08-25T23:37:12;6.70;;;4.55;;
44098;SDS011;29762;50.086;14.364;2022-08-25T23:42:32;5.65;;;4.43;;
44098;SDS011;29762;50.086;14.364;2022-08-25T23:47:52;6.32;;;4.50;;
44098;SDS011;29762;50.086;14.364;2022-08-25T23:53:12;6.53;;;4.32;;
44098;SDS011;29762;50.086;14.364;2022-08-25T23:58:33;6.15;;;4.53;;
